This is the latest recevied weather packets stored in our database for station/object LRBS. If no packets are shown the sender has not sent any weather packets the latest 10 day(s).
| Time | Temp. | Humidity | Pressure | Rain* | Wind** | Luminosity | Snow |
|---|---|---|---|---|---|---|---|
| 1788241694 | 18.89° C | 64% | 1017 hPa | - | - | - | - |
| 1788240794 | 18.89° C | 64% | 1017 hPa | - | - | - | - |
| 1788239894 | 17.78° C | 68% | 1016 hPa | - | - | - | - |
| 1788238995 | 17.78° C | 68% | 1016 hPa | - | - | - | - |
| 1788238114 | 17.22° C | 73% | 1016 hPa | - | - | - | - |
| 1788237194 | 17.22° C | 73% | 1016 hPa | - | - | - | - |
| 1788236291 | 16.11° C | 72% | 1016 hPa | - | - | - | - |
| 1788221891 | 17.78° C | 64% | 1016 hPa | - | - | - | - |
| 1788219195 | 17.78° C | 64% | 1016 hPa | - | - | - | - |
| 1788216494 | 18.89° C | 60% | 1016 hPa | - | - | - | - |
| 1788214695 | 21.11° C | 50% | 1017 hPa | - | - | - | - |
| 1788211994 | 20° C | 53% | 1017 hPa | - | - | - | - |
| 1788211094 | 21.11° C | 50% | 1017 hPa | - | - | - | - |
| 1788210194 | 21.11° C | 50% | 1017 hPa | - | - | - | - |
| 1788208396 | 22.78° C | 44% | 1016 hPa | - | - | - | - |
| 1788207494 | 25° C | 36% | 1016 hPa | - | - | - | - |
| 1788206594 | 25° C | 36% | 1016 hPa | - | - | - | - |
| 1788204794 | 25° C | 36% | 1016 hPa | - | - | - | - |
| 1788203895 | 26.11° C | 37% | 1016 hPa | - | - | - | - |
| 1788201194 | 26.11° C | 39% | 1016 hPa | - | - | - | - |
| 1788200295 | 23.89° C | 47% | 1016 hPa | - | - | - | - |
| 1788197594 | 26.11° C | 42% | 1016 hPa | - | - | - | - |
| 1788196694 | 27.78° C | 35% | 1016 hPa | - | - | - | - |
| 1788193994 | 30° C | 29% | 1016 hPa | - | - | - | - |
| 1788193094 | 31.11° C | 27% | 1016 hPa | - | - | - | - |
* Rain since midnight (hover to see other rain measurements)
** Current wind speed in m/s (hover to see current wind gust speed)